sensor_id;sensor_type;location;lat;lon;timestamp;temperature;humidity
13256;DHT22;37913;48.370;10.930;2022-11-27T00:00:40;-0.20;99.90
13256;DHT22;37913;48.370;10.930;2022-11-27T00:03:08;-0.30;99.90
13256;DHT22;37913;48.370;10.930;2022-11-27T00:05:35;-0.30;99.90
13256;DHT22;37913;48.370;10.930;2022-11-27T00:08:02;-0.30;99.90
13256;DHT22;37913;48.370;10.930;2022-11-27T00:10:29;-0.30;99.90
13256;DHT22;37913;48.370;10.930;2022-11-27T00:12:56;-0.30;99.90
13256;DHT22;37913;48.370;10.930;2022-11-27T00:15:23;-0.20;99.90
13256;DHT22;37913;48.370;10.930;2022-11-27T00:17:50;-0.20;99.90
13256;DHT22;37913;48.370;10.930;2022-11-27T00:20:21;-0.30;99.90
13256;DHT22;37913;48.370;10.930;2022-11-27T00:22:48;-0.40;99.90
13256;DHT22;37913;48.370;10.930;2022-11-27T00:25:15;-0.30;99.90
13256;DHT22;37913;48.370;10.930;2022-11-27T00:27:41;-0.30;99.90
13256;DHT22;37913;48.370;10.930;2022-11-27T00:30:09;-0.30;99.90
13256;DHT22;37913;48.370;10.930;2022-11-27T00:32:36;-0.30;99.90
13256;DHT22;37913;48.370;10.930;2022-11-27T00:35:04;-0.30;99.90
13256;DHT22;37913;48.370;10.930;2022-11-27T00:37:32;-0.30;99.90
13256;DHT22;37913;48.370;10.930;2022-11-27T00:40:00;-0.20;99.90
13256;DHT22;37913;48.370;10.930;2022-11-27T00:42:27;-0.30;99.90
13256;DHT22;37913;48.370;10.930;2022-11-27T00:44:54;-0.30;99.90
13256;DHT22;37913;48.370;10.930;2022-11-27T00:47:21;-0.30;99.90
13256;DHT22;37913;48.370;10.930;2022-11-27T00:49:48;-0.30;99.90
13256;DHT22;37913;48.370;10.930;2022-11-27T00:52:15;-0.30;99.90
13256;DHT22;37913;48.370;10.930;2022-11-27T00:54:43;-0.30;99.90
13256;DHT22;37913;48.370;10.930;2022-11-27T00:57:10;-0.30;99.90
13256;DHT22;37913;48.370;10.930;2022-11-27T00:59:37;-0.40;99.90
13256;DHT22;37913;48.370;10.930;2022-11-27T01:02:04;-0.40;99.90
13256;DHT22;37913;48.370;10.930;2022-11-27T01:04:31;-0.40;99.90
13256;DHT22;37913;48.370;10.930;2022-11-27T01:06:58;-0.40;99.90
13256;DHT22;37913;48.370;10.930;2022-11-27T01:09:26;-0.40;99.90
13256;DHT22;37913;48.370;10.930;2022-11-27T01:11:55;-0.40;99.90
13256;DHT22;37913;48.370;10.930;2022-11-27T01:14:21;-0.40;99.90
13256;DHT22;37913;48.370;10.930;2022-11-27T01:16:48;-0.50;99.90
13256;DHT22;37913;48.370;10.930;2022-11-27T01:19:15;-0.40;99.90
13256;DHT22;37913;48.370;10.930;2022-11-27T01:21:42;-0.40;99.90
13256;DHT22;37913;48.370;10.930;2022-11-27T01:24:11;-0.40;99.90
13256;DHT22;37913;48.370;10.930;2022-11-27T01:26:39;-0.40;99.90
13256;DHT22;37913;48.370;10.930;2022-11-27T01:29:07;-0.40;99.90
13256;DHT22;37913;48.370;10.930;2022-11-27T01:31:35;-0.50;99.90
13256;DHT22;37913;48.370;10.930;2022-11-27T01:34:04;-0.60;99.90
13256;DHT22;37913;48.370;10.930;2022-11-27T01:36:32;-0.70;99.90
13256;DHT22;37913;48.370;10.930;2022-11-27T01:39:00;-0.70;99.90
13256;DHT22;37913;48.370;10.930;2022-11-27T01:41:29;-0.80;99.90
13256;DHT22;37913;48.370;10.930;2022-11-27T01:43:58;-0.80;99.90
13256;DHT22;37913;48.370;10.930;2022-11-27T01:46:35;-0.80;99.90
13256;DHT22;37913;48.370;10.930;2022-11-27T01:49:20;-0.90;99.90
13256;DHT22;37913;48.370;10.930;2022-11-27T01:51:51;-0.80;99.90
13256;DHT22;37913;48.370;10.930;2022-11-27T01:54:20;-0.80;99.90
13256;DHT22;37913;48.370;10.930;2022-11-27T01:56:50;-0.80;99.90
13256;DHT22;37913;48.370;10.930;2022-11-27T01:59:18;-0.90;99.90
13256;DHT22;37913;48.370;10.930;2022-11-27T02:01:46;-0.80;99.90
13256;DHT22;37913;48.370;10.930;2022-11-27T02:04:13;-0.80;99.90
13256;DHT22;37913;48.370;10.930;2022-11-27T02:06:40;-0.80;99.90
13256;DHT22;37913;48.370;10.930;2022-11-27T02:09:07;-0.80;99.90
13256;DHT22;37913;48.370;10.930;2022-11-27T02:11:40;-0.80;99.90
13256;DHT22;37913;48.370;10.930;2022-11-27T02:14:15;-0.80;99.90
13256;DHT22;37913;48.370;10.930;2022-11-27T02:16:57;-0.80;99.90
13256;DHT22;37913;48.370;10.930;2022-11-27T02:19:39;-0.70;99.90
13256;DHT22;37913;48.370;10.930;2022-11-27T02:22:19;-0.60;99.90
13256;DHT22;37913;48.370;10.930;2022-11-27T02:24:55;-0.70;99.90
13256;DHT22;37913;48.370;10.930;2022-11-27T02:27:56;-0.60;99.90
13256;DHT22;37913;48.370;10.930;2022-11-27T02:30:35;-0.60;99.90
13256;DHT22;37913;48.370;10.930;2022-11-27T02:33:09;-0.60;99.90
13256;DHT22;37913;48.370;10.930;2022-11-27T02:35:40;-0.60;99.90
13256;DHT22;37913;48.370;10.930;2022-11-27T02:38:13;-0.60;99.90
13256;DHT22;37913;48.370;10.930;2022-11-27T02:40:46;-0.60;99.90
13256;DHT22;37913;48.370;10.930;2022-11-27T02:43:19;-0.60;99.90
13256;DHT22;37913;48.370;10.930;2022-11-27T02:45:50;-0.60;99.90
13256;DHT22;37913;48.370;10.930;2022-11-27T02:48:20;-0.60;99.90
13256;DHT22;37913;48.370;10.930;2022-11-27T02:50:50;-0.60;99.90
13256;DHT22;37913;48.370;10.930;2022-11-27T02:53:20;-0.60;99.90
13256;DHT22;37913;48.370;10.930;2022-11-27T02:55:49;-0.70;99.90
13256;DHT22;37913;48.370;10.930;2022-11-27T02:58:20;-0.60;99.90
13256;DHT22;37913;48.370;10.930;2022-11-27T03:00:50;-0.70;99.90
13256;DHT22;37913;48.370;10.930;2022-11-27T03:03:25;-0.60;99.90
13256;DHT22;37913;48.370;10.930;2022-11-27T03:05:59;-0.60;99.90
13256;DHT22;37913;48.370;10.930;2022-11-27T03:08:31;-0.60;99.90
13256;DHT22;37913;48.370;10.930;2022-11-27T03:11:02;-0.60;99.90
13256;DHT22;37913;48.370;10.930;2022-11-27T03:13:32;-0.60;99.90
13256;DHT22;37913;48.370;10.930;2022-11-27T03:16:09;-0.70;99.90
13256;DHT22;37913;48.370;10.930;2022-11-27T03:18:41;-0.70;99.90
13256;DHT22;37913;48.370;10.930;2022-11-27T03:21:25;-0.70;99.90
13256;DHT22;37913;48.370;10.930;2022-11-27T03:23:53;-0.70;99.90
13256;DHT22;37913;48.370;10.930;2022-11-27T03:26:20;-0.70;99.90
13256;DHT22;37913;48.370;10.930;2022-11-27T03:28:47;-0.70;99.90
13256;DHT22;37913;48.370;10.930;2022-11-27T03:31:19;-0.80;99.90
13256;DHT22;37913;48.370;10.930;2022-11-27T03:33:48;-0.80;99.90
13256;DHT22;37913;48.370;10.930;2022-11-27T03:36:17;-0.80;99.90
13256;DHT22;37913;48.370;10.930;2022-11-27T03:38:45;-0.80;99.90
13256;DHT22;37913;48.370;10.930;2022-11-27T03:41:18;-0.70;99.90
13256;DHT22;37913;48.370;10.930;2022-11-27T03:44:00;-0.70;99.90
13256;DHT22;37913;48.370;10.930;2022-11-27T03:46:39;-0.70;99.90
13256;DHT22;37913;48.370;10.930;2022-11-27T03:49:15;-0.70;99.90
13256;DHT22;37913;48.370;10.930;2022-11-27T03:51:50;-0.70;99.90
13256;DHT22;37913;48.370;10.930;2022-11-27T03:54:25;-0.70;99.90
13256;DHT22;37913;48.370;10.930;2022-11-27T03:57:00;-0.80;99.90
13256;DHT22;37913;48.370;10.930;2022-11-27T03:59:30;-0.90;99.90
13256;DHT22;37913;48.370;10.930;2022-11-27T04:01:59;-0.90;99.90
13256;DHT22;37913;48.370;10.930;2022-11-27T04:04:26;-0.90;99.90
13256;DHT22;37913;48.370;10.930;2022-11-27T04:06:54;-0.90;99.90
13256;DHT22;37913;48.370;10.930;2022-11-27T04:09:21;-0.90;99.90
13256;DHT22;37913;48.370;10.930;2022-11-27T04:11:49;-0.80;99.90
13256;DHT22;37913;48.370;10.930;2022-11-27T04:14:16;-0.80;99.90
13256;DHT22;37913;48.370;10.930;2022-11-27T04:16:43;-0.80;99.90
13256;DHT22;37913;48.370;10.930;2022-11-27T04:19:12;-0.80;99.90
13256;DHT22;37913;48.370;10.930;2022-11-27T04:21:38;-0.90;99.90
13256;DHT22;37913;48.370;10.930;2022-11-27T04:24:06;-0.90;99.90
13256;DHT22;37913;48.370;10.930;2022-11-27T04:26:33;-0.90;99.90
13256;DHT22;37913;48.370;10.930;2022-11-27T04:29:00;-0.90;99.90
13256;DHT22;37913;48.370;10.930;2022-11-27T04:31:26;-0.90;99.90
13256;DHT22;37913;48.370;10.930;2022-11-27T04:33:54;-0.90;99.90
13256;DHT22;37913;48.370;10.930;2022-11-27T04:36:22;-0.90;99.90
13256;DHT22;37913;48.370;10.930;2022-11-27T04:38:49;-1.00;99.90
13256;DHT22;37913;48.370;10.930;2022-11-27T04:41:16;-1.00;99.90
13256;DHT22;37913;48.370;10.930;2022-11-27T04:43:43;-1.00;99.90
13256;DHT22;37913;48.370;10.930;2022-11-27T04:46:10;-1.00;99.90
13256;DHT22;37913;48.370;10.930;2022-11-27T04:48:37;-1.00;99.90
13256;DHT22;37913;48.370;10.930;2022-11-27T04:51:04;-1.00;99.90
13256;DHT22;37913;48.370;10.930;2022-11-27T04:53:33;-1.10;99.90
13256;DHT22;37913;48.370;10.930;2022-11-27T04:56:00;-1.20;99.90
13256;DHT22;37913;48.370;10.930;2022-11-27T04:58:27;-1.20;99.90
13256;DHT22;37913;48.370;10.930;2022-11-27T05:00:53;-1.20;99.90
13256;DHT22;37913;48.370;10.930;2022-11-27T05:03:20;-1.30;99.90
13256;DHT22;37913;48.370;10.930;2022-11-27T05:05:54;-1.30;99.90
13256;DHT22;37913;48.370;10.930;2022-11-27T05:08:21;-1.40;99.90
13256;DHT22;37913;48.370;10.930;2022-11-27T05:10:59;-1.40;99.90
13256;DHT22;37913;48.370;10.930;2022-11-27T05:13:27;-1.30;99.90
13256;DHT22;37913;48.370;10.930;2022-11-27T05:15:53;-1.30;99.90
13256;DHT22;37913;48.370;10.930;2022-11-27T05:18:20;-1.20;99.90
13256;DHT22;37913;48.370;10.930;2022-11-27T05:20:55;-1.30;99.90
13256;DHT22;37913;48.370;10.930;2022-11-27T05:23:22;-1.20;99.90
13256;DHT22;37913;48.370;10.930;2022-11-27T05:25:49;-0.80;99.90
13256;DHT22;37913;48.370;10.930;2022-11-27T05:28:17;-1.30;99.90
13256;DHT22;37913;48.370;10.930;2022-11-27T05:30:45;-1.30;99.90
13256;DHT22;37913;48.370;10.930;2022-11-27T05:33:12;-1.20;99.90
13256;DHT22;37913;48.370;10.930;2022-11-27T05:35:39;-1.30;99.90
13256;DHT22;37913;48.370;10.930;2022-11-27T05:38:07;-1.20;99.90
13256;DHT22;37913;48.370;10.930;2022-11-27T05:40:34;-1.30;99.90
13256;DHT22;37913;48.370;10.930;2022-11-27T05:43:01;-1.50;99.90
13256;DHT22;37913;48.370;10.930;2022-11-27T05:45:30;-1.20;99.90
13256;DHT22;37913;48.370;10.930;2022-11-27T05:47:57;-1.70;99.90
13256;DHT22;37913;48.370;10.930;2022-11-27T05:50:24;-1.70;99.90
13256;DHT22;37913;48.370;10.930;2022-11-27T05:52:50;-1.60;99.90
13256;DHT22;37913;48.370;10.930;2022-11-27T05:55:17;-0.70;99.90
13256;DHT22;37913;48.370;10.930;2022-11-27T05:57:44;-1.70;99.90
13256;DHT22;37913;48.370;10.930;2022-11-27T06:00:12;-1.70;99.90
13256;DHT22;37913;48.370;10.930;2022-11-27T06:02:41;-1.70;99.90
13256;DHT22;37913;48.370;10.930;2022-11-27T06:05:08;-1.50;99.90
13256;DHT22;37913;48.370;10.930;2022-11-27T06:07:35;-1.80;99.90
13256;DHT22;37913;48.370;10.930;2022-11-27T06:10:02;-1.80;99.90
13256;DHT22;37913;48.370;10.930;2022-11-27T06:12:30;-1.80;99.90
13256;DHT22;37913;48.370;10.930;2022-11-27T06:14:57;-1.80;99.90
13256;DHT22;37913;48.370;10.930;2022-11-27T06:17:24;-1.80;99.90
13256;DHT22;37913;48.370;10.930;2022-11-27T06:19:52;-1.80;99.90
13256;DHT22;37913;48.370;10.930;2022-11-27T06:22:19;-1.80;99.90
13256;DHT22;37913;48.370;10.930;2022-11-27T06:24:46;-1.80;99.90
13256;DHT22;37913;48.370;10.930;2022-11-27T06:27:13;-1.80;99.90
13256;DHT22;37913;48.370;10.930;2022-11-27T06:29:40;-1.80;99.90
13256;DHT22;37913;48.370;10.930;2022-11-27T06:32:07;-1.80;99.90
13256;DHT22;37913;48.370;10.930;2022-11-27T06:34:34;-1.70;99.90
13256;DHT22;37913;48.370;10.930;2022-11-27T06:37:02;-1.30;99.90
13256;DHT22;37913;48.370;10.930;2022-11-27T06:39:29;-1.80;99.90
13256;DHT22;37913;48.370;10.930;2022-11-27T06:41:56;-1.80;99.90
13256;DHT22;37913;48.370;10.930;2022-11-27T06:44:23;-1.80;99.90
13256;DHT22;37913;48.370;10.930;2022-11-27T06:46:50;-1.80;99.90
13256;DHT22;37913;48.370;10.930;2022-11-27T06:49:18;-1.00;99.90
13256;DHT22;37913;48.370;10.930;2022-11-27T06:51:48;-1.50;99.90
13256;DHT22;37913;48.370;10.930;2022-11-27T06:54:16;-1.70;99.90
13256;DHT22;37913;48.370;10.930;2022-11-27T06:56:43;-1.70;99.90
13256;DHT22;37913;48.370;10.930;2022-11-27T06:59:11;-1.80;99.90
13256;DHT22;37913;48.370;10.930;2022-11-27T07:01:39;-1.80;99.90
13256;DHT22;37913;48.370;10.930;2022-11-27T07:04:07;-1.90;99.90
13256;DHT22;37913;48.370;10.930;2022-11-27T07:06:34;-1.90;99.90
13256;DHT22;37913;48.370;10.930;2022-11-27T07:09:01;-1.40;99.90
13256;DHT22;37913;48.370;10.930;2022-11-27T07:11:30;-1.90;99.90
13256;DHT22;37913;48.370;10.930;2022-11-27T07:13:59;-1.90;99.90
13256;DHT22;37913;48.370;10.930;2022-11-27T07:16:28;-1.70;99.90
13256;DHT22;37913;48.370;10.930;2022-11-27T07:18:58;-1.50;99.90
13256;DHT22;37913;48.370;10.930;2022-11-27T07:21:26;-0.90;99.90
13256;DHT22;37913;48.370;10.930;2022-11-27T07:23:53;-1.40;99.90
13256;DHT22;37913;48.370;10.930;2022-11-27T07:26:22;-1.20;99.90
13256;DHT22;37913;48.370;10.930;2022-11-27T07:28:51;-0.90;99.90
13256;DHT22;37913;48.370;10.930;2022-11-27T07:31:19;-0.40;99.90
13256;DHT22;37913;48.370;10.930;2022-11-27T07:33:47;-0.80;99.90
13256;DHT22;37913;48.370;10.930;2022-11-27T07:36:16;0.30;99.90
13256;DHT22;37913;48.370;10.930;2022-11-27T07:38:43;0.50;99.90
13256;DHT22;37913;48.370;10.930;2022-11-27T07:41:12;0.50;99.90
13256;DHT22;37913;48.370;10.930;2022-11-27T07:43:56;0.60;99.90
13256;DHT22;37913;48.370;10.930;2022-11-27T07:46:24;1.10;99.90
13256;DHT22;37913;48.370;10.930;2022-11-27T07:48:58;1.50;99.90
13256;DHT22;37913;48.370;10.930;2022-11-27T07:51:26;1.70;99.90
13256;DHT22;37913;48.370;10.930;2022-11-27T07:53:53;1.90;99.90
13256;DHT22;37913;48.370;10.930;2022-11-27T07:56:20;2.50;99.90
13256;DHT22;37913;48.370;10.930;2022-11-27T07:58:47;3.30;99.90
13256;DHT22;37913;48.370;10.930;2022-11-27T08:01:18;3.20;99.90
13256;DHT22;37913;48.370;10.930;2022-11-27T08:03:46;3.80;99.90
13256;DHT22;37913;48.370;10.930;2022-11-27T08:06:15;4.40;99.90
13256;DHT22;37913;48.370;10.930;2022-11-27T08:08:43;3.50;99.90
13256;DHT22;37913;48.370;10.930;2022-11-27T08:11:18;3.90;99.90
13256;DHT22;37913;48.370;10.930;2022-11-27T08:13:46;4.70;99.90
13256;DHT22;37913;48.370;10.930;2022-11-27T08:16:13;5.30;99.90
13256;DHT22;37913;48.370;10.930;2022-11-27T08:18:42;6.00;99.90
13256;DHT22;37913;48.370;10.930;2022-11-27T08:21:09;6.60;99.90
13256;DHT22;37913;48.370;10.930;2022-11-27T08:23:36;6.90;99.90
13256;DHT22;37913;48.370;10.930;2022-11-27T08:26:06;7.10;99.90
13256;DHT22;37913;48.370;10.930;2022-11-27T08:28:34;7.10;99.90
13256;DHT22;37913;48.370;10.930;2022-11-27T08:31:03;7.40;99.90
13256;DHT22;37913;48.370;10.930;2022-11-27T08:33:30;7.20;99.90
13256;DHT22;37913;48.370;10.930;2022-11-27T08:35:59;5.60;99.90
13256;DHT22;37913;48.370;10.930;2022-11-27T08:38:27;5.30;99.90
13256;DHT22;37913;48.370;10.930;2022-11-27T08:40:54;5.60;99.90
13256;DHT22;37913;48.370;10.930;2022-11-27T08:43:22;5.20;99.90
13256;DHT22;37913;48.370;10.930;2022-11-27T08:45:50;5.70;99.90
13256;DHT22;37913;48.370;10.930;2022-11-27T08:48:17;5.90;99.90
13256;DHT22;37913;48.370;10.930;2022-11-27T08:50:45;6.00;99.90
13256;DHT22;37913;48.370;10.930;2022-11-27T08:53:14;6.40;99.90
13256;DHT22;37913;48.370;10.930;2022-11-27T08:55:41;6.50;99.90
13256;DHT22;37913;48.370;10.930;2022-11-27T08:58:08;6.20;99.90
13256;DHT22;37913;48.370;10.930;2022-11-27T09:00:36;6.20;99.90
13256;DHT22;37913;48.370;10.930;2022-11-27T09:03:04;6.00;99.90
13256;DHT22;37913;48.370;10.930;2022-11-27T09:05:31;6.00;99.90
13256;DHT22;37913;48.370;10.930;2022-11-27T09:07:58;5.60;99.90
13256;DHT22;37913;48.370;10.930;2022-11-27T09:10:28;5.80;99.90
13256;DHT22;37913;48.370;10.930;2022-11-27T09:12:55;5.80;99.90
13256;DHT22;37913;48.370;10.930;2022-11-27T09:15:23;5.90;99.90
13256;DHT22;37913;48.370;10.930;2022-11-27T09:17:50;5.90;99.90
13256;DHT22;37913;48.370;10.930;2022-11-27T09:20:17;6.30;99.90
13256;DHT22;37913;48.370;10.930;2022-11-27T09:22:44;7.00;99.90
13256;DHT22;37913;48.370;10.930;2022-11-27T09:25:11;6.60;99.90
13256;DHT22;37913;48.370;10.930;2022-11-27T09:27:39;6.40;99.90
13256;DHT22;37913;48.370;10.930;2022-11-27T09:30:07;6.80;99.90
13256;DHT22;37913;48.370;10.930;2022-11-27T09:32:34;7.00;99.90
13256;DHT22;37913;48.370;10.930;2022-11-27T09:35:01;6.60;99.90
13256;DHT22;37913;48.370;10.930;2022-11-27T09:37:28;5.70;99.90
13256;DHT22;37913;48.370;10.930;2022-11-27T09:39:55;4.80;99.90
13256;DHT22;37913;48.370;10.930;2022-11-27T09:42:36;5.40;99.90
13256;DHT22;37913;48.370;10.930;2022-11-27T09:51:58;5.70;99.90
13256;DHT22;37913;48.370;10.930;2022-11-27T09:54:42;6.00;99.90
13256;DHT22;37913;48.370;10.930;2022-11-27T09:57:25;5.60;99.90
13256;DHT22;37913;48.370;10.930;2022-11-27T09:59:53;5.40;99.90
13256;DHT22;37913;48.370;10.930;2022-11-27T10:02:27;5.00;99.90
13256;DHT22;37913;48.370;10.930;2022-11-27T10:04:55;4.80;99.90
13256;DHT22;37913;48.370;10.930;2022-11-27T10:07:32;4.70;99.90
13256;DHT22;37913;48.370;10.930;2022-11-27T10:10:11;4.60;99.90
13256;DHT22;37913;48.370;10.930;2022-11-27T10:12:50;4.70;99.90
13256;DHT22;37913;48.370;10.930;2022-11-27T10:15:30;4.60;99.90
13256;DHT22;37913;48.370;10.930;2022-11-27T10:18:01;4.40;99.90
13256;DHT22;37913;48.370;10.930;2022-11-27T10:20:36;4.10;99.90
13256;DHT22;37913;48.370;10.930;2022-11-27T10:23:17;3.50;99.90
13256;DHT22;37913;48.370;10.930;2022-11-27T10:25:49;3.40;99.90
13256;DHT22;37913;48.370;10.930;2022-11-27T10:28:26;3.00;99.90
13256;DHT22;37913;48.370;10.930;2022-11-27T10:30:57;2.90;99.90
13256;DHT22;37913;48.370;10.930;2022-11-27T10:33:29;3.00;99.90
13256;DHT22;37913;48.370;10.930;2022-11-27T10:36:01;3.00;99.90
13256;DHT22;37913;48.370;10.930;2022-11-27T10:38:32;2.80;99.90
13256;DHT22;37913;48.370;10.930;2022-11-27T10:41:06;2.70;99.90
13256;DHT22;37913;48.370;10.930;2022-11-27T10:43:34;2.30;99.90
13256;DHT22;37913;48.370;10.930;2022-11-27T10:46:07;2.40;99.90
13256;DHT22;37913;48.370;10.930;2022-11-27T10:48:35;2.60;99.90
13256;DHT22;37913;48.370;10.930;2022-11-27T10:51:02;2.70;99.90
13256;DHT22;37913;48.370;10.930;2022-11-27T10:53:31;2.80;99.90
13256;DHT22;37913;48.370;10.930;2022-11-27T10:56:20;2.80;99.90
13256;DHT22;37913;48.370;10.930;2022-11-27T10:58:56;2.90;99.90
13256;DHT22;37913;48.370;10.930;2022-11-27T11:01:25;3.00;99.90
13256;DHT22;37913;48.370;10.930;2022-11-27T11:04:04;3.00;99.90
13256;DHT22;37913;48.370;10.930;2022-11-27T11:06:36;3.10;99.90
13256;DHT22;37913;48.370;10.930;2022-11-27T11:09:13;3.50;99.90
13256;DHT22;37913;48.370;10.930;2022-11-27T11:11:40;3.80;99.90
13256;DHT22;37913;48.370;10.930;2022-11-27T11:14:15;3.80;99.90
13256;DHT22;37913;48.370;10.930;2022-11-27T11:16:42;4.00;99.90
13256;DHT22;37913;48.370;10.930;2022-11-27T11:19:21;4.20;1.00
13256;DHT22;37913;48.370;10.930;2022-11-27T11:21:48;4.20;1.00
13256;DHT22;37913;48.370;10.930;2022-11-27T11:24:22;4.20;1.00
13256;DHT22;37913;48.370;10.930;2022-11-27T11:26:51;4.20;1.00
13256;DHT22;37913;48.370;10.930;2022-11-27T11:29:26;4.20;1.00
13256;DHT22;37913;48.370;10.930;2022-11-27T11:31:55;4.10;24.30
13256;DHT22;37913;48.370;10.930;2022-11-27T11:34:26;3.90;1.00
13256;DHT22;37913;48.370;10.930;2022-11-27T11:36:55;3.60;99.90
13256;DHT22;37913;48.370;10.930;2022-11-27T11:39:25;2.70;1.00
13256;DHT22;37913;48.370;10.930;2022-11-27T11:41:52;2.80;1.00
13256;DHT22;37913;48.370;10.930;2022-11-27T11:44:21;2.70;1.00
13256;DHT22;37913;48.370;10.930;2022-11-27T11:46:52;3.00;1.00
13256;DHT22;37913;48.370;10.930;2022-11-27T11:49:22;3.20;1.00
13256;DHT22;37913;48.370;10.930;2022-11-27T11:52:01;3.20;1.00
13256;DHT22;37913;48.370;10.930;2022-11-27T11:54:53;2.70;1.00
13256;DHT22;37913;48.370;10.930;2022-11-27T12:00:43;2.40;1.00
13256;DHT22;37913;48.370;10.930;2022-11-27T12:03:31;2.30;1.00
13256;DHT22;37913;48.370;10.930;2022-11-27T12:06:11;2.40;1.00
13256;DHT22;37913;48.370;10.930;2022-11-27T12:08:51;2.30;1.00
13256;DHT22;37913;48.370;10.930;2022-11-27T12:11:25;2.10;1.00
13256;DHT22;37913;48.370;10.930;2022-11-27T12:14:04;2.20;12.50
13256;DHT22;37913;48.370;10.930;2022-11-27T12:16:45;2.00;9.00
13256;DHT22;37913;48.370;10.930;2022-11-27T12:19:47;2.20;10.00
13256;DHT22;37913;48.370;10.930;2022-11-27T12:22:23;1.80;24.40
13256;DHT22;37913;48.370;10.930;2022-11-27T12:24:57;1.80;65.80
13256;DHT22;37913;48.370;10.930;2022-11-27T12:27:54;1.70;88.50
13256;DHT22;37913;48.370;10.930;2022-11-27T12:30:24;1.70;86.50
13256;DHT22;37913;48.370;10.930;2022-11-27T12:33:23;2.50;94.90
13256;DHT22;37913;48.370;10.930;2022-11-27T12:36:00;1.40;99.90
13256;DHT22;37913;48.370;10.930;2022-11-27T12:38:59;1.20;99.90
13256;DHT22;37913;48.370;10.930;2022-11-27T12:41:43;1.30;99.90
13256;DHT22;37913;48.370;10.930;2022-11-27T12:44:21;1.60;99.90
13256;DHT22;37913;48.370;10.930;2022-11-27T12:46:56;1.60;99.90
13256;DHT22;37913;48.370;10.930;2022-11-27T12:49:28;1.50;99.90
13256;DHT22;37913;48.370;10.930;2022-11-27T12:52:00;1.60;99.90
13256;DHT22;37913;48.370;10.930;2022-11-27T12:54:30;1.70;99.90
13256;DHT22;37913;48.370;10.930;2022-11-27T12:57:01;2.00;99.90
13256;DHT22;37913;48.370;10.930;2022-11-27T12:59:34;1.70;99.90
13256;DHT22;37913;48.370;10.930;2022-11-27T13:02:06;1.60;99.90
13256;DHT22;37913;48.370;10.930;2022-11-27T13:04:42;1.90;99.90
13256;DHT22;37913;48.370;10.930;2022-11-27T13:07:13;1.60;99.90
13256;DHT22;37913;48.370;10.930;2022-11-27T13:09:50;1.50;99.90
13256;DHT22;37913;48.370;10.930;2022-11-27T13:12:23;1.60;99.90
13256;DHT22;37913;48.370;10.930;2022-11-27T13:14:58;1.80;99.90
13256;DHT22;37913;48.370;10.930;2022-11-27T13:17:33;2.00;99.90
13256;DHT22;37913;48.370;10.930;2022-11-27T13:20:03;2.00;99.90
13256;DHT22;37913;48.370;10.930;2022-11-27T13:22:33;1.90;99.90
13256;DHT22;37913;48.370;10.930;2022-11-27T13:25:01;1.80;99.90
13256;DHT22;37913;48.370;10.930;2022-11-27T13:27:32;1.90;99.90
13256;DHT22;37913;48.370;10.930;2022-11-27T13:30:04;2.00;99.90
13256;DHT22;37913;48.370;10.930;2022-11-27T13:32:34;2.10;99.90
13256;DHT22;37913;48.370;10.930;2022-11-27T13:35:05;2.30;99.90
13256;DHT22;37913;48.370;10.930;2022-11-27T13:37:34;2.30;97.00
13256;DHT22;37913;48.370;10.930;2022-11-27T13:40:05;2.40;94.70
13256;DHT22;37913;48.370;10.930;2022-11-27T13:42:35;2.20;95.20
13256;DHT22;37913;48.370;10.930;2022-11-27T13:45:06;2.10;99.90
13256;DHT22;37913;48.370;10.930;2022-11-27T13:47:38;2.30;99.90
13256;DHT22;37913;48.370;10.930;2022-11-27T13:50:08;2.40;99.90
13256;DHT22;37913;48.370;10.930;2022-11-27T13:52:37;2.30;99.90
13256;DHT22;37913;48.370;10.930;2022-11-27T13:55:24;2.00;98.90
13256;DHT22;37913;48.370;10.930;2022-11-27T13:57:52;1.90;99.90
13256;DHT22;37913;48.370;10.930;2022-11-27T14:00:33;1.70;99.90
13256;DHT22;37913;48.370;10.930;2022-11-27T14:03:01;1.70;99.90
13256;DHT22;37913;48.370;10.930;2022-11-27T14:05:38;1.70;99.90
13256;DHT22;37913;48.370;10.930;2022-11-27T14:08:16;1.60;99.90
13256;DHT22;37913;48.370;10.930;2022-11-27T14:10:56;1.70;99.90
13256;DHT22;37913;48.370;10.930;2022-11-27T14:13:36;1.80;99.90
13256;DHT22;37913;48.370;10.930;2022-11-27T14:16:18;1.90;99.90
13256;DHT22;37913;48.370;10.930;2022-11-27T14:18:51;2.00;99.90
13256;DHT22;37913;48.370;10.930;2022-11-27T14:21:33;1.80;99.90
13256;DHT22;37913;48.370;10.930;2022-11-27T14:24:22;1.80;99.90
13256;DHT22;37913;48.370;10.930;2022-11-27T14:26:50;1.70;99.90
13256;DHT22;37913;48.370;10.930;2022-11-27T14:29:19;1.60;99.90
13256;DHT22;37913;48.370;10.930;2022-11-27T14:31:56;1.50;99.90
13256;DHT22;37913;48.370;10.930;2022-11-27T14:34:28;1.50;99.90
13256;DHT22;37913;48.370;10.930;2022-11-27T14:36:55;1.60;99.90
13256;DHT22;37913;48.370;10.930;2022-11-27T14:39:23;1.60;99.90
13256;DHT22;37913;48.370;10.930;2022-11-27T14:41:58;1.50;99.90
13256;DHT22;37913;48.370;10.930;2022-11-27T14:44:26;1.50;99.90
13256;DHT22;37913;48.370;10.930;2022-11-27T14:46:57;1.50;99.90
13256;DHT22;37913;48.370;10.930;2022-11-27T14:49:26;1.40;99.90
13256;DHT22;37913;48.370;10.930;2022-11-27T14:51:56;1.40;99.90
13256;DHT22;37913;48.370;10.930;2022-11-27T14:54:26;1.40;99.90
13256;DHT22;37913;48.370;10.930;2022-11-27T14:56:54;1.40;99.90
13256;DHT22;37913;48.370;10.930;2022-11-27T14:59:22;1.20;99.90
13256;DHT22;37913;48.370;10.930;2022-11-27T15:02:03;1.20;99.90
13256;DHT22;37913;48.370;10.930;2022-11-27T15:04:41;1.20;99.90
13256;DHT22;37913;48.370;10.930;2022-11-27T15:07:14;1.20;99.90
13256;DHT22;37913;48.370;10.930;2022-11-27T15:09:43;1.20;99.90
13256;DHT22;37913;48.370;10.930;2022-11-27T15:12:16;1.10;99.90
13256;DHT22;37913;48.370;10.930;2022-11-27T15:14:50;1.00;99.90
13256;DHT22;37913;48.370;10.930;2022-11-27T15:17:26;1.00;99.90
13256;DHT22;37913;48.370;10.930;2022-11-27T15:19:54;1.10;99.90
13256;DHT22;37913;48.370;10.930;2022-11-27T15:22:22;0.90;99.90
13256;DHT22;37913;48.370;10.930;2022-11-27T15:24:57;1.00;99.90
13256;DHT22;37913;48.370;10.930;2022-11-27T15:27:25;0.90;99.90
13256;DHT22;37913;48.370;10.930;2022-11-27T15:30:01;0.90;99.90
13256;DHT22;37913;48.370;10.930;2022-11-27T15:32:44;0.90;99.90
13256;DHT22;37913;48.370;10.930;2022-11-27T15:35:22;0.90;99.90
13256;DHT22;37913;48.370;10.930;2022-11-27T15:37:49;0.80;99.90
13256;DHT22;37913;48.370;10.930;2022-11-27T15:40:27;0.90;99.90
13256;DHT22;37913;48.370;10.930;2022-11-27T15:42:55;0.90;99.90
13256;DHT22;37913;48.370;10.930;2022-11-27T15:45:22;0.90;99.90
13256;DHT22;37913;48.370;10.930;2022-11-27T15:47:58;0.90;99.90
13256;DHT22;37913;48.370;10.930;2022-11-27T15:50:26;0.90;99.90
13256;DHT22;37913;48.370;10.930;2022-11-27T15:52:53;0.80;99.90
13256;DHT22;37913;48.370;10.930;2022-11-27T15:55:20;0.80;99.90
13256;DHT22;37913;48.370;10.930;2022-11-27T15:57:47;0.80;99.90